createdAt,value
2019-05-07T00:01:56.225Z,10.13
2019-05-07T00:04:24.712Z,9.77
2019-05-07T00:06:53.132Z,7.60
2019-05-07T00:09:23.266Z,8.10
2019-05-07T00:11:53.334Z,12.63
2019-05-07T00:14:23.544Z,9.53
2019-05-07T00:16:53.472Z,10.67
2019-05-07T00:19:23.174Z,8.40
2019-05-07T00:21:52.830Z,8.57
2019-05-07T00:24:22.310Z,10.90
2019-05-07T00:26:53.020Z,8.00
2019-05-07T00:29:22.361Z,10.70
2019-05-07T00:31:52.058Z,12.63
2019-05-07T00:34:22.664Z,8.40
2019-05-07T00:36:52.723Z,8.40
2019-05-07T00:39:22.787Z,8.13
2019-05-07T00:42:03.081Z,8.80
2019-05-07T00:44:32.829Z,9.87
2019-05-07T00:47:02.180Z,9.27
2019-05-07T00:49:32.971Z,9.70
2019-05-07T00:52:02.785Z,12.93
2019-05-07T00:54:32.525Z,10.77
2019-05-07T00:57:03.060Z,11.40
2019-05-07T00:59:52.505Z,10.83
2019-05-07T01:02:22.554Z,9.23
2019-05-07T01:04:53.021Z,10.37
2019-05-07T01:07:22.892Z,10.73
2019-05-07T01:09:52.409Z,8.80
2019-05-07T01:12:22.190Z,9.43
2019-05-07T01:14:52.881Z,7.87
2019-05-07T01:17:22.703Z,8.03
2019-05-07T01:19:53.254Z,7.87
2019-05-07T01:22:22.235Z,9.03
2019-05-07T01:24:52.568Z,8.17
2019-05-07T01:27:22.666Z,10.43
2019-05-07T01:29:52.779Z,8.70
2019-05-07T01:32:23.205Z,10.20
2019-05-07T01:34:53.267Z,13.30
2019-05-07T01:37:23.084Z,6.47
2019-05-07T01:39:52.946Z,10.80
2019-05-07T01:42:22.165Z,6.77
2019-05-07T01:44:52.779Z,12.10
2019-05-07T01:47:20.841Z,10.90
2019-05-07T01:49:49.261Z,13.47
2019-05-07T01:52:17.692Z,10.07
2019-05-07T01:54:47.482Z,10.00
2019-05-07T01:57:16.125Z,8.73
2019-05-07T01:59:44.559Z,10.00
2019-05-07T02:02:17.547Z,11.67
2019-05-07T02:04:56.986Z,8.80
2019-05-07T02:07:27.053Z,6.20
2019-05-07T02:09:57.117Z,8.37
2019-05-07T02:12:31.757Z,7.83
2019-05-07T02:15:02.467Z,12.57
2019-05-07T02:17:32.021Z,7.73
2019-05-07T02:20:02.431Z,11.07
2019-05-07T02:22:31.989Z,10.03
2019-05-07T02:25:03.083Z,10.77
2019-05-07T02:27:32.654Z,8.20
2019-05-07T02:30:04.357Z,11.83
2019-05-07T02:32:33.380Z,7.80
2019-05-07T02:35:04.131Z,9.83
2019-05-07T02:37:46.496Z,10.63
2019-05-07T02:40:06.016Z,9.97
2019-05-07T02:42:34.449Z,9.53
2019-05-07T02:45:13.175Z,8.90
2019-05-07T02:47:43.517Z,8.17
2019-05-07T02:50:13.030Z,8.77
2019-05-07T02:52:59.608Z,10.60
2019-05-07T02:55:44.964Z,9.50
2019-05-07T02:58:13.888Z,7.67
2019-05-07T03:00:43.389Z,10.37
2019-05-07T03:03:13.738Z,9.60
2019-05-07T03:06:02.962Z,7.13
2019-05-07T03:08:33.107Z,7.90
2019-05-07T03:11:03.342Z,11.67
2019-05-07T03:13:33.740Z,9.40
2019-05-07T03:16:03.814Z,10.67
2019-05-07T03:18:33.508Z,8.37
2019-05-07T03:21:03.974Z,8.83
2019-05-07T03:23:34.300Z,11.07
2019-05-07T03:26:04.381Z,10.03
2019-05-07T03:28:34.447Z,10.80
2019-05-07T03:31:07.439Z,9.17
2019-05-07T03:33:40.061Z,8.93
2019-05-07T03:36:09.300Z,9.77
2019-05-07T03:38:37.732Z,13.17
2019-05-07T03:41:06.174Z,10.57
2019-05-07T03:43:34.651Z,11.30
2019-05-07T03:46:14.253Z,12.07
2019-05-07T03:48:44.392Z,10.03
2019-05-07T03:51:13.169Z,9.13
2019-05-07T03:53:43.647Z,8.70
2019-05-07T03:56:13.246Z,12.03
2019-05-07T03:58:43.333Z,11.67
2019-05-07T04:01:13.321Z,10.33
2019-05-07T04:03:44.470Z,11.20
2019-05-07T04:06:12.851Z,11.80
2019-05-07T04:08:43.212Z,8.87
2019-05-07T04:11:13.795Z,15.30
2019-05-07T04:13:44.057Z,9.87
2019-05-07T04:16:13.512Z,10.37
2019-05-07T04:18:43.751Z,10.93
2019-05-07T04:21:14.045Z,10.87
2019-05-07T04:23:43.655Z,11.87
2019-05-07T04:26:16.776Z,12.70
2019-05-07T04:29:04.825Z,9.20
2019-05-07T04:31:34.491Z,10.00
2019-05-07T04:34:05.084Z,11.00
2019-05-07T04:36:34.584Z,11.27
2019-05-07T04:39:03.322Z,12.17
2019-05-07T04:41:32.903Z,10.20
2019-05-07T04:44:03.635Z,11.83
2019-05-07T04:46:33.401Z,10.77
2019-05-07T04:49:03.748Z,10.47
2019-05-07T04:51:34.497Z,13.53
2019-05-07T04:54:03.742Z,9.77
2019-05-07T04:56:33.685Z,12.43
2019-05-07T04:59:03.616Z,10.90
2019-05-07T05:01:34.110Z,12.40
2019-05-07T05:04:21.101Z,11.63
2019-05-07T05:06:33.034Z,13.10
2019-05-07T05:09:02.995Z,11.80
2019-05-07T05:11:33.623Z,13.47
2019-05-07T05:14:02.746Z,12.03
2019-05-07T05:16:32.787Z,15.10
2019-05-07T05:19:02.513Z,12.80
2019-05-07T05:21:35.601Z,13.53
2019-05-07T05:24:06.065Z,12.50
2019-05-07T05:26:34.483Z,14.87
2019-05-07T05:29:02.915Z,12.37
2019-05-07T05:31:33.097Z,20.03
2019-05-07T05:34:02.193Z,11.47
2019-05-07T05:36:32.778Z,17.43
2019-05-07T05:39:02.533Z,24.53
2019-05-07T05:41:34.024Z,24.30
2019-05-07T05:46:57.429Z,13.93
2019-05-07T05:49:25.869Z,16.67
2019-05-07T05:51:58.613Z,17.77
2019-05-07T05:54:28.725Z,22.40
2019-05-07T05:56:58.794Z,18.77
2019-05-07T05:59:51.276Z,22.20
2019-05-07T06:02:29.262Z,26.10
2019-05-07T06:05:15.626Z,20.50
2019-05-07T06:07:52.134Z,16.73
2019-05-07T06:13:15.856Z,21.80
2019-05-07T06:15:55.004Z,19.43
2019-05-07T06:18:43.457Z,22.13
2019-05-07T06:21:32.266Z,35.93
2019-05-07T06:24:02.345Z,24.90
2019-05-07T06:26:31.928Z,21.63
2019-05-07T06:29:02.316Z,17.57
2019-05-07T06:31:32.676Z,18.87
2019-05-07T06:34:01.880Z,23.13
2019-05-07T06:36:32.894Z,21.63
2019-05-07T06:39:14.969Z,20.07
2019-05-07T06:42:02.046Z,21.63
2019-05-07T06:44:32.027Z,20.37
2019-05-07T06:47:02.428Z,19.43
2019-05-07T06:49:32.429Z,24.60
2019-05-07T06:52:02.993Z,25.23
2019-05-07T06:54:32.088Z,23.60
2019-05-07T06:57:01.980Z,21.47
2019-05-07T06:59:34.606Z,23.07
2019-05-07T07:02:05.699Z,19.23
2019-05-07T07:04:36.118Z,18.90
2019-05-07T07:07:06.252Z,21.23
2019-05-07T07:09:36.309Z,22.10
2019-05-07T07:12:18.812Z,20.57
2019-05-07T07:14:47.285Z,22.47
2019-05-07T07:17:15.727Z,18.67
2019-05-07T07:19:44.157Z,20.03
2019-05-07T07:22:13.073Z,21.67
2019-05-07T07:24:42.441Z,21.67
2019-05-07T07:27:13.008Z,22.23
2019-05-07T07:32:44.025Z,21.57
2019-05-07T07:35:14.332Z,19.13
2019-05-07T07:37:43.101Z,20.27
2019-05-07T07:40:22.462Z,20.47
2019-05-07T07:42:52.065Z,21.93
2019-05-07T07:45:22.801Z,24.13
2019-05-07T07:47:52.924Z,18.40
2019-05-07T07:50:22.433Z,21.80
2019-05-07T07:52:52.981Z,19.23
2019-05-07T07:55:22.923Z,20.50
2019-05-07T07:57:58.948Z,21.30
2019-05-07T08:00:38.226Z,20.90
2019-05-07T08:03:08.292Z,21.30
2019-05-07T08:05:36.728Z,22.23
2019-05-07T08:08:05.168Z,19.13
2019-05-07T08:10:33.589Z,28.33
2019-05-07T08:13:02.247Z,24.10
2019-05-07T08:15:32.971Z,23.63
2019-05-07T08:18:02.788Z,21.37
2019-05-07T08:20:32.646Z,23.83
2019-05-07T08:23:02.989Z,23.63
2019-05-07T08:25:52.185Z,23.97
2019-05-07T08:28:22.814Z,25.00
2019-05-07T08:30:52.665Z,27.73
2019-05-07T08:33:22.778Z,23.33
2019-05-07T08:35:52.827Z,22.80
2019-05-07T08:38:21.921Z,20.95
2019-05-07T08:40:52.120Z,22.15
2019-05-07T08:43:40.142Z,20.35
2019-05-07T08:46:18.628Z,20.02
2019-05-07T08:48:48.713Z,21.62
2019-05-07T08:51:17.151Z,23.22
2019-05-07T08:53:45.601Z,20.48
2019-05-07T08:56:14.032Z,21.00
2019-05-07T08:58:42.470Z,23.50
2019-05-07T09:01:11.907Z,27.17
2019-05-07T09:03:43.533Z,31.62
2019-05-07T09:06:13.780Z,27.52
2019-05-07T09:08:43.652Z,22.55
2019-05-07T09:11:13.374Z,26.70
2019-05-07T09:13:42.150Z,26.62
2019-05-07T09:16:12.935Z,28.32
2019-05-07T09:18:42.215Z,25.68
2019-05-07T09:21:12.597Z,29.23
2019-05-07T09:23:42.410Z,29.57
2019-05-07T09:26:13.071Z,28.73
2019-05-07T09:29:02.655Z,50.08
2019-05-07T09:31:35.716Z,36.70
2019-05-07T09:34:04.157Z,26.77
2019-05-07T09:36:34.254Z,33.53
2019-05-07T09:39:02.860Z,32.93
2019-05-07T09:41:32.715Z,31.27
2019-05-07T09:44:03.179Z,31.62
2019-05-07T09:46:32.512Z,36.55
2019-05-07T09:49:03.100Z,33.28
2019-05-07T09:51:32.158Z,31.52
2019-05-07T09:54:02.532Z,30.60
2019-05-07T09:56:31.968Z,35.35
2019-05-07T09:59:02.171Z,31.82
2019-05-07T10:01:31.871Z,31.57
2019-05-07T10:04:02.611Z,33.45
2019-05-07T10:06:32.104Z,25.32
2019-05-07T10:09:02.691Z,29.00
2019-05-07T10:11:35.251Z,28.98
2019-05-07T10:14:05.420Z,30.77
2019-05-07T10:16:38.447Z,28.10
2019-05-07T10:19:06.893Z,28.57
2019-05-07T10:21:35.328Z,26.65
2019-05-07T10:24:03.904Z,28.07
2019-05-07T10:26:32.403Z,27.62
2019-05-07T10:29:02.120Z,24.60
2019-05-07T10:31:32.016Z,38.70
2019-05-07T10:34:02.915Z,55.20
2019-05-07T10:36:32.024Z,29.60
2019-05-07T10:39:02.517Z,24.80
2019-05-07T10:41:31.866Z,27.80
2019-05-07T10:44:02.428Z,26.55
2019-05-07T10:46:47.280Z,28.23
2019-05-07T10:49:17.360Z,28.45
2019-05-07T10:51:45.791Z,32.35
2019-05-07T10:54:14.215Z,28.83
2019-05-07T10:56:42.666Z,26.80
2019-05-07T10:59:12.232Z,27.65
2019-05-07T11:01:42.619Z,27.35
2019-05-07T11:04:12.799Z,27.30
2019-05-07T11:06:41.788Z,28.47
2019-05-07T11:09:10.448Z,24.20
2019-05-07T11:11:38.879Z,23.07
2019-05-07T11:14:07.307Z,22.75
2019-05-07T11:16:37.383Z,21.82
2019-05-07T11:19:05.815Z,23.67
2019-05-07T11:21:34.251Z,24.52
2019-05-07T11:24:03.418Z,20.32
2019-05-07T11:26:32.880Z,28.45
2019-05-07T11:29:02.362Z,26.80
2019-05-07T11:31:33.070Z,23.38
2019-05-07T11:34:02.743Z,20.12
2019-05-07T11:36:32.021Z,19.27
2019-05-07T11:39:01.811Z,19.00
2019-05-07T11:41:32.136Z,18.25
2019-05-07T11:44:02.246Z,20.75
2019-05-07T11:46:32.758Z,16.82
2019-05-07T11:49:18.079Z,17.02
2019-05-07T11:51:48.152Z,13.85
2019-05-07T11:54:16.585Z,17.48
2019-05-07T11:56:45.047Z,15.58
2019-05-07T11:59:13.731Z,18.27
2019-05-07T12:01:49.902Z,16.02
2019-05-07T12:04:18.350Z,16.60
2019-05-07T12:06:46.792Z,14.95
2019-05-07T12:09:15.227Z,15.63
2019-05-07T12:11:43.659Z,17.23
2019-05-07T12:14:12.493Z,14.87
2019-05-07T12:16:42.589Z,15.13
2019-05-07T12:19:13.069Z,13.70
2019-05-07T12:21:42.198Z,14.38
2019-05-07T12:24:12.869Z,13.48
2019-05-07T12:26:42.154Z,13.05
2019-05-07T12:29:11.824Z,11.30
2019-05-07T12:31:47.843Z,11.83
2019-05-07T12:34:23.607Z,9.78
2019-05-07T12:36:52.462Z,10.85
2019-05-07T12:39:21.933Z,15.98
2019-05-07T12:41:52.312Z,9.73
2019-05-07T12:44:22.207Z,9.35
2019-05-07T12:46:52.426Z,10.25
2019-05-07T12:49:22.148Z,8.00
2019-05-07T12:51:52.359Z,9.48
2019-05-07T12:54:34.657Z,6.72
2019-05-07T12:57:02.522Z,6.65
2019-05-07T12:59:32.268Z,7.25
2019-05-07T13:02:36.409Z,12.65
2019-05-07T13:04:52.153Z,7.12
2019-05-07T13:07:22.391Z,11.70
2019-05-07T13:09:51.988Z,6.85
2019-05-07T13:12:21.738Z,6.95
2019-05-07T13:14:52.207Z,6.70
2019-05-07T13:17:22.439Z,6.08
2019-05-07T13:19:52.475Z,6.53
2019-05-07T13:22:21.934Z,4.05
2019-05-07T13:24:52.736Z,5.25
2019-05-07T13:27:20.695Z,4.20
2019-05-07T13:29:49.192Z,4.33
2019-05-07T13:32:19.364Z,4.12
2019-05-07T13:34:47.868Z,5.42
2019-05-07T13:37:18.280Z,4.22
2019-05-07T13:39:52.001Z,4.22
2019-05-07T13:42:38.205Z,4.30
2019-05-07T13:45:28.824Z,4.92
2019-05-07T13:47:58.959Z,3.75
2019-05-07T13:50:27.480Z,3.40
2019-05-07T13:52:55.904Z,4.78
2019-05-07T13:55:24.333Z,3.83
2019-05-07T13:57:52.771Z,6.20
2019-05-07T14:00:23.552Z,5.08
2019-05-07T14:02:54.693Z,3.70
2019-05-07T14:05:22.139Z,4.90
2019-05-07T14:07:50.981Z,5.03
2019-05-07T14:10:19.405Z,3.40
2019-05-07T14:12:48.400Z,4.00
2019-05-07T14:15:16.974Z,5.15
2019-05-07T14:17:45.407Z,3.85
2019-05-07T14:20:14.279Z,4.50
2019-05-07T14:22:42.731Z,3.20
2019-05-07T14:25:11.571Z,4.67
2019-05-07T14:27:40.022Z,3.77
2019-05-07T14:30:09.519Z,4.22
2019-05-07T14:32:55.965Z,3.75
2019-05-07T14:35:28.744Z,3.77
2019-05-07T14:37:58.803Z,5.58
2019-05-07T14:40:27.239Z,4.40
2019-05-07T14:43:03.586Z,5.65
2019-05-07T14:45:32.609Z,4.37
2019-05-07T14:48:02.900Z,4.40
2019-05-07T14:50:33.050Z,4.10
2019-05-07T14:53:02.772Z,4.30
2019-05-07T14:55:32.476Z,4.08
2019-05-07T14:58:01.821Z,3.58
2019-05-07T15:00:30.534Z,3.87
2019-05-07T15:02:58.960Z,4.12
2019-05-07T15:05:27.391Z,3.95
2019-05-07T15:08:07.353Z,4.95
2019-05-07T15:10:25.976Z,3.22
2019-05-07T15:12:54.476Z,2.22
2019-05-07T15:15:22.978Z,4.15
2019-05-07T15:17:53.032Z,3.37
2019-05-07T15:20:22.552Z,5.78
2019-05-07T15:22:52.842Z,4.33
2019-05-07T15:25:22.735Z,5.20
2019-05-07T15:27:52.671Z,3.60
2019-05-07T15:30:22.123Z,2.62
2019-05-07T15:32:52.115Z,2.58
2019-05-07T15:35:20.763Z,3.40
2019-05-07T15:37:49.334Z,4.08
2019-05-07T15:40:18.224Z,3.33
2019-05-07T15:42:46.651Z,2.92
2019-05-07T15:45:15.224Z,5.25
2019-05-07T15:47:45.284Z,4.12
2019-05-07T15:50:14.060Z,2.98
2019-05-07T15:52:57.603Z,5.00
2019-05-07T15:55:17.243Z,5.10
2019-05-07T15:57:45.663Z,4.80
2019-05-07T16:00:18.520Z,3.72
2019-05-07T16:03:02.479Z,3.37
2019-05-07T16:05:31.944Z,3.85
2019-05-07T16:08:01.673Z,4.08
2019-05-07T16:10:32.308Z,4.17
2019-05-07T16:13:01.102Z,3.77
2019-05-07T16:15:31.770Z,4.37
2019-05-07T16:18:02.831Z,5.28
2019-05-07T16:20:32.572Z,4.60
2019-05-07T16:23:13.975Z,4.22
2019-05-07T16:25:33.039Z,3.67
2019-05-07T16:28:02.139Z,5.15
2019-05-07T16:30:32.350Z,3.47
2019-05-07T16:33:02.170Z,3.83
2019-05-07T16:35:32.027Z,5.05
2019-05-07T16:38:00.736Z,5.60
2019-05-07T16:40:29.179Z,44.53
2019-05-07T16:42:57.615Z,8.45
2019-05-07T16:45:26.109Z,4.25
2019-05-07T16:47:54.539Z,4.10
2019-05-07T16:50:23.054Z,3.72
2019-05-07T16:52:52.376Z,4.33
2019-05-07T16:55:22.448Z,3.62
2019-05-07T16:58:04.642Z,3.83
2019-05-07T17:00:46.015Z,4.03
2019-05-07T17:03:16.155Z,3.72
2019-05-07T17:05:44.575Z,4.17
2019-05-07T17:08:14.688Z,3.08
2019-05-07T17:10:43.687Z,5.35
2019-05-07T17:13:12.477Z,3.87
2019-05-07T17:15:57.493Z,5.87
2019-05-07T17:18:27.254Z,4.72
2019-05-07T17:20:56.769Z,3.92
2019-05-07T17:23:25.436Z,4.72
2019-05-07T17:25:53.947Z,4.00
2019-05-07T17:28:22.974Z,5.37
2019-05-07T17:30:52.448Z,5.47
2019-05-07T17:33:23.018Z,6.78
2019-05-07T17:35:51.766Z,5.92
2019-05-07T17:38:22.852Z,5.50
2019-05-07T17:40:52.185Z,4.87
2019-05-07T17:43:21.934Z,5.78
2019-05-07T17:45:52.363Z,12.75
2019-05-07T17:48:23.036Z,11.03
2019-05-07T17:50:52.810Z,11.38
2019-05-07T17:53:22.530Z,10.75
2019-05-07T17:55:52.848Z,13.20
2019-05-07T17:58:21.200Z,12.10
2019-05-07T18:00:52.878Z,12.68
2019-05-07T18:03:42.806Z,13.30
2019-05-07T18:06:12.490Z,13.10
2019-05-07T18:08:41.199Z,12.35
2019-05-07T18:11:18.551Z,13.95
2019-05-07T18:13:39.822Z,15.53
2019-05-07T18:16:11.992Z,11.68
2019-05-07T18:18:40.058Z,12.33
2019-05-07T18:21:08.483Z,12.75
2019-05-07T18:23:36.932Z,11.08
2019-05-07T18:26:05.434Z,15.60
2019-05-07T18:28:33.872Z,13.20
2019-05-07T18:31:02.302Z,14.35
2019-05-07T18:33:38.519Z,12.90
2019-05-07T18:36:06.950Z,13.22
2019-05-07T18:38:35.395Z,13.25
2019-05-07T18:41:03.831Z,11.97
2019-05-07T18:43:33.140Z,14.45
2019-05-07T18:46:02.312Z,15.48
2019-05-07T18:48:31.013Z,13.08
2019-05-07T18:50:59.463Z,13.10
2019-05-07T18:53:27.976Z,13.98
2019-05-07T18:55:56.404Z,15.25
2019-05-07T18:58:24.843Z,14.18
2019-05-07T19:00:54.932Z,15.35
2019-05-07T19:03:25.339Z,17.55
2019-05-07T19:05:53.696Z,12.90
2019-05-07T19:08:22.890Z,15.50
2019-05-07T19:10:52.191Z,15.60
2019-05-07T19:13:22.166Z,15.50
2019-05-07T19:15:52.992Z,16.55
2019-05-07T19:18:22.779Z,13.00
2019-05-07T19:20:53.013Z,14.93
2019-05-07T19:23:22.364Z,13.70
2019-05-07T19:25:52.343Z,16.48
2019-05-07T19:28:22.648Z,14.60
2019-05-07T19:30:52.803Z,18.05
2019-05-07T19:33:26.496Z,18.48
2019-05-07T19:35:52.747Z,16.10
2019-05-07T19:38:21.610Z,15.85
2019-05-07T19:40:50.084Z,14.23
2019-05-07T19:43:18.551Z,16.45
2019-05-07T19:45:47.070Z,16.35
2019-05-07T19:48:15.503Z,18.23
2019-05-07T19:50:43.951Z,16.20
2019-05-07T19:53:12.623Z,14.00
2019-05-07T19:56:01.778Z,15.28
2019-05-07T19:58:29.535Z,17.77
2019-05-07T20:00:57.980Z,24.07
2019-05-07T20:03:26.412Z,16.55
2019-05-07T20:05:54.860Z,16.62
2019-05-07T20:08:23.363Z,16.93
2019-05-07T20:10:56.325Z,15.83
2019-05-07T20:13:27.244Z,17.45
2019-05-07T20:18:36.780Z,20.08
2019-05-07T20:21:05.224Z,16.05
2019-05-07T20:23:33.655Z,19.90
2019-05-07T20:26:03.105Z,17.80
2019-05-07T20:28:32.679Z,19.65
2019-05-07T20:31:01.395Z,16.82
2019-05-07T20:33:29.823Z,18.50
2019-05-07T20:35:58.264Z,16.95
2019-05-07T20:38:26.700Z,14.25
2019-05-07T20:40:55.147Z,17.05
2019-05-07T20:43:23.648Z,16.55
2019-05-07T20:45:52.083Z,18.52
2019-05-07T20:48:22.651Z,17.00
2019-05-07T20:50:52.059Z,16.70
2019-05-07T20:53:22.455Z,19.02
2019-05-07T20:55:58.475Z,16.17
2019-05-07T20:58:26.899Z,15.45
2019-05-07T21:00:55.344Z,14.78
2019-05-07T21:03:24.126Z,17.57
2019-05-07T21:06:11.942Z,16.00
2019-05-07T21:08:42.651Z,16.95
2019-05-07T21:11:11.910Z,17.23
2019-05-07T21:13:42.647Z,17.12
2019-05-07T21:16:12.605Z,17.55
2019-05-07T21:18:42.125Z,17.02
2019-05-07T21:21:12.540Z,17.37
2019-05-07T21:23:43.225Z,17.42
2019-05-07T21:26:32.682Z,17.25
2019-05-07T21:29:02.716Z,18.20
2019-05-07T21:31:32.185Z,17.50
2019-05-07T21:34:02.893Z,20.50
2019-05-07T21:36:32.431Z,17.45
2019-05-07T21:39:02.312Z,20.57
2019-05-07T21:41:33.268Z,15.75
2019-05-07T21:44:01.297Z,18.57
2019-05-07T21:46:49.079Z,16.07
2019-05-07T21:49:17.508Z,17.05
2019-05-07T21:51:45.970Z,18.70
2019-05-07T21:54:19.016Z,17.92
2019-05-07T21:56:57.716Z,20.55
2019-05-07T21:59:27.800Z,17.98
2019-05-07T22:02:02.223Z,17.73
2019-05-07T22:04:30.854Z,18.48
2019-05-07T22:06:59.308Z,20.03
2019-05-07T22:09:27.736Z,16.95
2019-05-07T22:11:56.171Z,19.20
2019-05-07T22:14:24.638Z,18.42
2019-05-07T22:16:54.636Z,18.20
2019-05-07T22:19:23.274Z,18.60
2019-05-07T22:21:52.341Z,15.70
2019-05-07T22:24:22.357Z,16.75
2019-05-07T22:26:51.216Z,17.40
2019-05-07T22:29:19.768Z,16.80
2019-05-07T22:31:58.795Z,16.20
2019-05-07T22:34:34.566Z,17.25
2019-05-07T22:37:03.441Z,17.27
2019-05-07T22:39:32.701Z,17.23
2019-05-07T22:42:02.366Z,16.95
2019-05-07T22:44:32.074Z,16.05
2019-05-07T22:47:02.511Z,17.10
2019-05-07T22:49:33.201Z,15.37
2019-05-07T22:52:02.403Z,17.67
2019-05-07T22:54:31.923Z,19.10
2019-05-07T22:57:05.033Z,15.80
2019-05-07T22:59:33.489Z,17.73
2019-05-07T23:02:03.041Z,19.57
2019-05-07T23:04:32.558Z,16.57
2019-05-07T23:07:02.205Z,19.98
2019-05-07T23:09:30.887Z,20.30
2019-05-07T23:11:59.321Z,20.67
2019-05-07T23:14:27.788Z,18.17
2019-05-07T23:16:57.069Z,17.27
2019-05-07T23:19:25.510Z,19.03
2019-05-07T23:21:53.936Z,18.17
2019-05-07T23:24:24.745Z,19.90
2019-05-07T23:26:53.608Z,19.57
2019-05-07T23:29:22.779Z,17.05
2019-05-07T23:31:52.969Z,18.87
2019-05-07T23:34:22.146Z,19.50
2019-05-07T23:36:52.976Z,16.90
2019-05-07T23:39:22.513Z,15.30
2019-05-07T23:42:02.277Z,15.53
2019-05-07T23:44:30.844Z,17.00
2019-05-07T23:46:59.447Z,16.83
2019-05-07T23:49:48.993Z,17.20
2019-05-07T23:52:17.421Z,15.30
2019-05-07T23:54:45.859Z,17.73
2019-05-07T23:57:15.395Z,15.40
2019-05-07T23:59:44.007Z,16.83
